Time;durP1;ratioP1;P1;durP2;ratioP2;P2;SDS_P1;SDS_P2;PMS_P1;PMS_P2;Temp;Humidity;BMP_temperature;BMP_pressure;BME280_temperature;BME280_humidity;BME280_pressure;Samples;Min_cycle;Max_cycle;Signal;HPM_P1;HPM_P2
2023/12/10 00:01:14;;;;;;;1.20;0.63;;;4.60;99.90;;;;;;5006773;28;20037;-74
2023/12/10 00:03:40;;;;;;;1.83;0.90;;;4.60;99.90;;;;;;5002321;28;20041;-74
2023/12/10 00:06:06;;;;;;;2.45;1.30;;;4.60;99.90;;;;;;5006536;28;20041;-74
2023/12/10 00:08:31;;;;;;;1.50;0.90;;;4.60;99.90;;;;;;5011051;28;20532;-74
2023/12/10 00:10:57;;;;;;;1.25;0.73;;;4.60;99.90;;;;;;5009878;28;20034;-74
2023/12/10 00:13:22;;;;;;;0.98;0.73;;;4.60;99.90;;;;;;5012792;28;20034;-74
2023/12/10 00:15:48;;;;;;;1.17;0.85;;;4.60;99.90;;;;;;5009162;28;20033;-74
2023/12/10 00:18:13;;;;;;;1.52;1.10;;;4.60;99.90;;;;;;5009199;28;20029;-75
2023/12/10 00:20:39;;;;;;;1.58;1.02;;;4.70;99.90;;;;;;5009751;28;20069;-74
2023/12/10 00:23:07;;;;;;;2.50;1.40;;;4.70;99.90;;;;;;5010040;28;20038;-74
2023/12/10 00:25:32;;;;;;;2.97;1.10;;;4.70;99.90;;;;;;5012233;28;20029;-75
2023/12/10 00:27:58;;;;;;;1.15;0.70;;;4.70;99.90;;;;;;5015933;28;20040;-74
2023/12/10 00:30:24;;;;;;;1.30;0.98;;;4.70;99.90;;;;;;5010437;28;20027;-75
2023/12/10 00:32:49;;;;;;;1.35;1.05;;;4.80;99.90;;;;;;5007235;28;20037;-74
2023/12/10 00:35:14;;;;;;;1.67;0.80;;;4.80;99.90;;;;;;5010493;28;20466;-75
2023/12/10 00:37:40;;;;;;;0.80;0.80;;;4.80;99.90;;;;;;5007496;28;20041;-74
2023/12/10 00:40:06;;;;;;;1.55;0.90;;;4.80;99.90;;;;;;5011330;28;20042;-74
2023/12/10 00:42:32;;;;;;;1.38;0.88;;;4.80;99.90;;;;;;5010432;28;20030;-74
2023/12/10 00:44:58;;;;;;;2.85;1.27;;;4.90;99.90;;;;;;5011199;28;20092;-74
2023/12/10 00:47:23;;;;;;;1.40;1.00;;;4.80;99.90;;;;;;5006502;28;20042;-75
2023/12/10 00:49:49;;;;;;;1.58;0.98;;;4.90;99.90;;;;;;5008421;28;20033;-75
2023/12/10 00:52:14;;;;;;;1.58;0.90;;;4.90;99.90;;;;;;5008689;28;20038;-74
2023/12/10 00:54:40;;;;;;;1.05;0.75;;;4.90;99.90;;;;;;5009013;28;20415;-74
2023/12/10 00:57:05;;;;;;;1.83;0.90;;;4.90;99.90;;;;;;5004497;28;20485;-74
2023/12/10 00:59:30;;;;;;;2.38;1.10;;;5.00;99.90;;;;;;5012239;28;20069;-74
2023/12/10 01:01:57;;;;;;;1.65;1.00;;;5.00;99.90;;;;;;5003208;28;20052;-74
2023/12/10 01:04:23;;;;;;;3.08;1.35;;;5.00;99.90;;;;;;5011495;28;20125;-74
2023/12/10 01:06:49;;;;;;;2.58;1.25;;;5.10;99.90;;;;;;5018270;28;20125;-74
2023/12/10 01:09:15;;;;;;;1.92;1.10;;;5.10;99.90;;;;;;5008275;28;20114;-74
2023/12/10 01:11:41;;;;;;;2.08;1.20;;;5.10;99.90;;;;;;5014620;28;20069;-75
2023/12/10 01:14:06;;;;;;;1.55;0.95;;;5.20;99.90;;;;;;5011087;28;20128;-74
2023/12/10 01:16:32;;;;;;;1.80;1.10;;;5.20;99.90;;;;;;5008809;28;20038;-74
2023/12/10 01:18:57;;;;;;;1.83;1.20;;;5.20;99.90;;;;;;5010917;28;20654;-74
2023/12/10 01:21:23;;;;;;;3.20;1.75;;;5.30;99.90;;;;;;5015803;28;20088;-74
2023/12/10 01:23:50;;;;;;;2.92;1.73;;;5.40;99.90;;;;;;5013637;28;20112;-74
2023/12/10 01:26:16;;;;;;;2.72;1.88;;;5.40;99.90;;;;;;5009088;28;20030;-74
2023/12/10 01:28:42;;;;;;;3.38;1.55;;;5.50;99.90;;;;;;5011145;28;20034;-75
2023/12/10 01:31:07;;;;;;;3.75;2.08;;;5.50;99.90;;;;;;5005544;28;20034;-74
2023/12/10 01:33:33;;;;;;;3.47;2.30;;;5.70;99.90;;;;;;5011073;28;20261;-75
2023/12/10 01:35:58;;;;;;;3.88;2.25;;;5.70;99.90;;;;;;5005781;28;20048;-75
2023/12/10 01:38:24;;;;;;;3.17;1.75;;;5.70;99.90;;;;;;5019097;28;20022;-75
2023/12/10 01:40:49;;;;;;;3.78;1.92;;;5.70;99.90;;;;;;5011434;28;20034;-74
2023/12/10 01:43:17;;;;;;;3.78;1.63;;;5.80;99.90;;;;;;5007674;28;20042;-75
2023/12/10 01:45:54;;;;;;;5.28;2.38;;;5.90;99.90;;;;;;5008532;28;20467;-75
2023/12/10 01:48:21;;;;;;;3.88;1.65;;;5.90;99.90;;;;;;5005202;28;20061;-75
2023/12/10 01:50:47;;;;;;;3.25;2.05;;;5.90;99.90;;;;;;5008826;28;20107;-75
2023/12/10 01:53:14;;;;;;;5.75;2.13;;;5.90;99.90;;;;;;5015742;28;20040;-75
2023/12/10 01:55:41;;;;;;;3.58;2.33;;;6.00;99.90;;;;;;5007663;28;20037;-75
2023/12/10 01:58:07;;;;;;;4.35;2.13;;;6.10;99.90;;;;;;5009176;28;20111;-75
2023/12/10 02:00:33;;;;;;;5.40;2.25;;;6.10;99.90;;;;;;5008877;28;20069;-75
2023/12/10 02:03:03;;;;;;;3.70;1.80;;;6.20;99.90;;;;;;5008337;28;20478;-74
2023/12/10 02:05:28;;;;;;;4.30;2.17;;;6.30;99.90;;;;;;5007925;28;20506;-74
2023/12/10 02:07:54;;;;;;;3.75;1.98;;;6.30;99.90;;;;;;5007027;28;20116;-74
2023/12/10 02:10:20;;;;;;;3.92;1.98;;;6.30;99.90;;;;;;5001612;28;20033;-74
2023/12/10 02:12:47;;;;;;;3.17;1.83;;;6.40;99.90;;;;;;5007185;28;20045;-74
2023/12/10 02:15:17;;;;;;;4.60;2.33;;;6.40;99.90;;;;;;5006481;28;20031;-74
2023/12/10 02:17:48;;;;;;;4.78;1.58;;;6.40;99.90;;;;;;5003378;28;20112;-74
2023/12/10 02:20:14;;;;;;;3.22;1.70;;;6.60;99.90;;;;;;5003307;28;20084;-74
2023/12/10 02:23:14;;;;;;;4.35;2.05;;;6.60;99.90;;;;;;5010292;28;20038;-74
2023/12/10 02:25:40;;;;;;;3.80;1.50;;;6.60;99.90;;;;;;5023574;28;20030;-75
2023/12/10 02:28:07;;;;;;;2.95;1.20;;;6.70;99.90;;;;;;5013618;28;20034;-74
2023/12/10 02:30:34;;;;;;;4.28;1.75;;;6.70;99.90;;;;;;5004694;28;20034;-74
2023/12/10 02:33:00;;;;;;;3.10;1.38;;;6.70;99.90;;;;;;5015836;28;20035;-74
2023/12/10 02:35:26;;;;;;;3.33;1.20;;;6.80;99.90;;;;;;5008614;28;20026;-74
2023/12/10 02:37:52;;;;;;;5.22;1.75;;;6.70;99.90;;;;;;5007611;28;20455;-75
2023/12/10 02:40:17;;;;;;;1.95;1.35;;;6.80;99.90;;;;;;5007229;28;20034;-75
2023/12/10 02:42:45;;;;;;;2.70;1.52;;;6.70;99.90;;;;;;5006586;28;20097;-74
2023/12/10 02:45:11;;;;;;;5.15;1.42;;;6.80;99.90;;;;;;5006855;28;20033;-74
2023/12/10 02:47:37;;;;;;;4.43;1.70;;;6.80;99.90;;;;;;5006382;28;20402;-75
2023/12/10 02:50:02;;;;;;;4.90;1.58;;;6.90;99.90;;;;;;5005987;28;20034;-74
2023/12/10 02:52:28;;;;;;;3.42;1.25;;;6.80;99.90;;;;;;5010451;28;20038;-74
2023/12/10 02:54:53;;;;;;;5.10;1.52;;;6.80;99.90;;;;;;5004975;28;20046;-74
2023/12/10 02:57:19;;;;;;;4.07;1.27;;;6.80;99.90;;;;;;5008310;28;20030;-74
2023/12/10 02:59:44;;;;;;;4.38;1.13;;;6.80;99.90;;;;;;5009991;28;20121;-74
2023/12/10 03:02:10;;;;;;;2.60;1.10;;;6.80;99.90;;;;;;5006936;28;20470;-74
2023/12/10 03:04:35;;;;;;;4.68;1.27;;;6.80;99.90;;;;;;5007469;28;20034;-74
2023/12/10 03:07:01;;;;;;;4.03;1.20;;;6.80;99.90;;;;;;5005626;28;20026;-74
2023/12/10 03:09:26;;;;;;;2.20;0.98;;;6.80;99.90;;;;;;5008404;28;20029;-74
2023/12/10 03:11:51;;;;;;;2.97;1.05;;;6.80;99.90;;;;;;5009126;28;20705;-74
2023/12/10 03:14:17;;;;;;;5.35;1.65;;;6.80;99.90;;;;;;5006570;28;20036;-74
2023/12/10 03:16:42;;;;;;;1.73;0.70;;;6.80;99.90;;;;;;5005865;28;20295;-74
2023/12/10 03:19:09;;;;;;;2.65;0.75;;;6.80;99.90;;;;;;5026515;28;20076;-74
2023/12/10 03:21:34;;;;;;;2.08;0.82;;;6.70;99.90;;;;;;5006463;28;20030;-74
2023/12/10 03:24:00;;;;;;;1.25;0.70;;;6.70;99.90;;;;;;5011684;28;20044;-74
2023/12/10 03:26:25;;;;;;;4.03;1.70;;;6.80;99.90;;;;;;5014095;28;20102;-74
2023/12/10 03:28:51;;;;;;;6.60;1.08;;;6.70;99.90;;;;;;5012443;28;20041;-74
2023/12/10 03:31:16;;;;;;;2.78;1.33;;;6.80;99.90;;;;;;5008891;28;20137;-74
2023/12/10 03:33:42;;;;;;;1.92;0.98;;;6.90;99.90;;;;;;5007272;28;20489;-74
2023/12/10 03:36:08;;;;;;;3.90;0.77;;;6.90;99.90;;;;;;5007166;28;20030;-75
2023/12/10 03:38:33;;;;;;;4.47;1.83;;;6.90;99.90;;;;;;5011535;28;20087;-74
2023/12/10 03:40:59;;;;;;;4.90;1.52;;;6.90;99.90;;;;;;5011977;28;20475;-74
2023/12/10 03:43:24;;;;;;;1.42;0.52;;;6.90;99.90;;;;;;5013331;28;20992;-74
2023/12/10 03:45:50;;;;;;;6.90;2.33;;;6.80;99.90;;;;;;5008829;28;20045;-74
2023/12/10 03:48:15;;;;;;;3.10;1.25;;;6.80;99.90;;;;;;5008114;28;20685;-74
2023/12/10 03:50:41;;;;;;;1.73;0.70;;;6.80;99.90;;;;;;5009717;28;20058;-74
2023/12/10 03:53:06;;;;;;;3.22;1.55;;;6.80;99.90;;;;;;5013515;28;20056;-74
2023/12/10 03:55:32;;;;;;;13.88;1.38;;;6.80;99.90;;;;;;5011027;28;20113;-74
2023/12/10 03:57:58;;;;;;;1.63;1.42;;;6.90;99.90;;;;;;5007873;28;20035;-74
2023/12/10 04:00:23;;;;;;;6.72;1.15;;;6.90;99.90;;;;;;5009137;28;20421;-74
2023/12/10 04:02:49;;;;;;;2.65;1.48;;;7.00;99.90;;;;;;5008763;28;20038;-74
2023/12/10 04:05:14;;;;;;;4.05;1.80;;;7.00;99.90;;;;;;5010179;28;20372;-74
2023/12/10 04:07:40;;;;;;;2.88;0.73;;;7.00;99.80;;;;;;5007909;28;20030;-74
2023/12/10 04:10:07;;;;;;;2.28;1.15;;;7.10;99.70;;;;;;5009764;28;20037;-74
2023/12/10 04:12:32;;;;;;;5.32;1.25;;;7.10;99.60;;;;;;5009045;28;20034;-74
2023/12/10 04:14:58;;;;;;;4.35;0.90;;;7.10;99.50;;;;;;5008629;28;20037;-74
2023/12/10 04:17:23;;;;;;;4.88;0.77;;;7.10;99.50;;;;;;5009315;28;20462;-74
2023/12/10 04:19:49;;;;;;;2.38;1.40;;;7.10;99.30;;;;;;5009010;28;20034;-74
2023/12/10 04:22:14;;;;;;;5.47;1.05;;;7.20;99.30;;;;;;5011430;28;20123;-74
2023/12/10 04:24:40;;;;;;;1.40;0.50;;;7.10;99.40;;;;;;5011408;28;20139;-74
2023/12/10 04:27:05;;;;;;;2.65;0.75;;;7.10;99.50;;;;;;5011466;28;20033;-74
2023/12/10 04:29:31;;;;;;;3.90;1.45;;;7.10;99.50;;;;;;5008504;28;20034;-74
2023/12/10 04:31:56;;;;;;;6.60;1.02;;;7.10;99.70;;;;;;5011130;28;20052;-74
2023/12/10 04:34:22;;;;;;;3.10;1.70;;;7.10;99.80;;;;;;5007180;28;20382;-74
2023/12/10 04:36:47;;;;;;;2.45;0.73;;;7.10;99.70;;;;;;5010552;28;20042;-74
2023/12/10 04:39:15;;;;;;;2.47;0.90;;;7.00;99.80;;;;;;5011496;28;20033;-74
2023/12/10 04:41:40;;;;;;;5.15;1.15;;;7.00;99.90;;;;;;5009333;28;20034;-74
2023/12/10 04:44:06;;;;;;;5.57;1.45;;;7.00;99.90;;;;;;5011415;28;20088;-74
2023/12/10 04:46:31;;;;;;;3.72;1.10;;;7.00;99.90;;;;;;5007318;28;20041;-74
2023/12/10 04:48:57;;;;;;;2.28;0.88;;;7.00;99.80;;;;;;5021812;28;20057;-74
2023/12/10 04:51:24;;;;;;;2.10;0.98;;;7.00;99.90;;;;;;5010364;28;20049;-74
2023/12/10 04:53:50;;;;;;;2.88;1.02;;;7.00;99.90;;;;;;5011616;28;20037;-74
2023/12/10 04:56:16;;;;;;;2.88;0.63;;;6.90;99.90;;;;;;5009810;28;20080;-74
2023/12/10 04:58:41;;;;;;;1.42;0.80;;;6.90;99.90;;;;;;5010931;28;20581;-74
2023/12/10 05:01:07;;;;;;;2.63;0.70;;;6.90;99.90;;;;;;5008050;28;20471;-74
2023/12/10 05:03:33;;;;;;;3.95;1.20;;;6.80;99.90;;;;;;5007391;28;20152;-74
2023/12/10 05:05:58;;;;;;;1.50;0.65;;;6.80;99.90;;;;;;5009045;28;20042;-75
2023/12/10 05:08:23;;;;;;;6.47;1.13;;;6.80;99.90;;;;;;5011015;28;20091;-74
2023/12/10 05:10:49;;;;;;;2.85;1.02;;;6.80;99.90;;;;;;5009538;28;20032;-74
2023/12/10 05:13:14;;;;;;;2.05;0.60;;;6.80;99.90;;;;;;5024419;28;20104;-74
2023/12/10 05:15:40;;;;;;;3.33;1.05;;;6.70;99.90;;;;;;5007832;28;20030;-74
2023/12/10 05:18:05;;;;;;;2.63;0.90;;;6.70;99.90;;;;;;5006600;28;20129;-74
2023/12/10 05:20:31;;;;;;;1.67;0.77;;;6.70;99.90;;;;;;5008682;28;20034;-74
2023/12/10 05:22:59;;;;;;;3.50;1.80;;;6.70;99.90;;;;;;5010400;28;20026;-74
2023/12/10 05:25:27;;;;;;;2.28;0.93;;;6.70;99.90;;;;;;5010051;28;20026;-74
2023/12/10 05:27:53;;;;;;;2.97;1.13;;;6.70;99.90;;;;;;5009645;28;20168;-72
2023/12/10 05:30:18;;;;;;;1.63;0.57;;;6.60;99.90;;;;;;5008574;28;20117;-71
2023/12/10 05:32:44;;;;;;;2.22;1.23;;;6.60;99.90;;;;;;5007076;28;20692;-71
2023/12/10 05:35:09;;;;;;;2.80;1.52;;;6.60;99.90;;;;;;5009316;28;20088;-71
2023/12/10 05:37:35;;;;;;;6.68;1.27;;;6.60;99.90;;;;;;5007070;28;20049;-71
2023/12/10 05:40:00;;;;;;;3.08;1.35;;;6.60;99.90;;;;;;5009169;28;20156;-71
2023/12/10 05:42:26;;;;;;;2.90;1.33;;;6.70;99.90;;;;;;5008960;28;20040;-71
2023/12/10 05:44:53;;;;;;;1.05;0.65;;;6.70;99.90;;;;;;5009928;28;20294;-71
2023/12/10 05:47:18;;;;;;;1.30;0.77;;;6.60;99.90;;;;;;5007254;28;20026;-72
2023/12/10 05:49:44;;;;;;;5.97;1.23;;;6.70;99.90;;;;;;5006050;28;20056;-71
2023/12/10 05:52:09;;;;;;;4.70;0.55;;;6.60;99.90;;;;;;5009273;28;20120;-71
2023/12/10 05:54:35;;;;;;;3.67;1.20;;;6.70;99.90;;;;;;5010112;28;20109;-70
2023/12/10 05:57:00;;;;;;;1.67;0.70;;;6.60;99.90;;;;;;5007809;28;20038;-71
2023/12/10 05:59:26;;;;;;;2.08;0.60;;;6.60;99.90;;;;;;5009277;28;20033;-71
2023/12/10 06:01:51;;;;;;;3.75;1.13;;;6.60;99.90;;;;;;5005286;28;20041;-71
2023/12/10 06:04:17;;;;;;;1.08;0.68;;;6.60;99.90;;;;;;5005202;28;20073;-70
2023/12/10 06:06:42;;;;;;;3.78;0.75;;;6.60;99.90;;;;;;5007160;28;20396;-72
2023/12/10 06:09:09;;;;;;;1.98;0.80;;;6.60;99.90;;;;;;5006403;28;20033;-71
2023/12/10 06:11:34;;;;;;;1.70;0.75;;;6.60;99.90;;;;;;5006148;28;20037;-71
2023/12/10 06:14:00;;;;;;;0.95;0.52;;;6.60;99.90;;;;;;5008543;28;20042;-71
2023/12/10 06:16:25;;;;;;;4.97;0.70;;;6.60;99.90;;;;;;5011020;28;20049;-71
2023/12/10 06:18:51;;;;;;;3.42;1.27;;;6.60;99.90;;;;;;5003695;28;20026;-71
2023/12/10 06:21:16;;;;;;;2.00;0.77;;;6.70;99.90;;;;;;5004116;28;20391;-72
2023/12/10 06:23:42;;;;;;;1.17;0.80;;;6.70;99.90;;;;;;5008915;28;20034;-71
2023/12/10 06:26:07;;;;;;;1.33;0.52;;;6.60;99.90;;;;;;5006360;28;20042;-71
2023/12/10 06:28:32;;;;;;;3.28;1.25;;;6.60;99.90;;;;;;5010055;28;20536;-71
2023/12/10 06:30:58;;;;;;;5.07;1.40;;;6.70;99.90;;;;;;5009974;28;20048;-71
2023/12/10 06:33:24;;;;;;;6.43;1.20;;;6.70;99.90;;;;;;5006450;28;20022;-71
2023/12/10 06:35:50;;;;;;;2.10;0.88;;;6.60;99.90;;;;;;5008097;28;20030;-71
2023/12/10 06:38:15;;;;;;;4.45;0.70;;;6.60;99.90;;;;;;5010895;28;20026;-71
2023/12/10 06:40:40;;;;;;;1.80;0.80;;;6.60;99.90;;;;;;5006779;28;20092;-70
2023/12/10 06:43:07;;;;;;;0.95;0.65;;;6.60;99.90;;;;;;5009740;28;20109;-70
2023/12/10 06:45:32;;;;;;;4.85;0.82;;;6.60;99.90;;;;;;5009743;28;20084;-71
2023/12/10 06:47:58;;;;;;;1.10;0.52;;;6.60;99.90;;;;;;5005551;28;20041;-71
2023/12/10 06:50:23;;;;;;;2.22;0.82;;;6.60;99.90;;;;;;5008068;28;20226;-71
2023/12/10 06:52:49;;;;;;;2.28;0.90;;;6.60;99.90;;;;;;5009254;28;20060;-71
2023/12/10 06:55:14;;;;;;;1.65;0.60;;;6.60;99.90;;;;;;5008701;28;20100;-71
2023/12/10 06:57:40;;;;;;;1.42;0.57;;;6.60;99.90;;;;;;5012141;28;20053;-71
2023/12/10 07:00:06;;;;;;;3.50;1.10;;;6.60;99.90;;;;;;5012229;28;20431;-71
2023/12/10 07:02:31;;;;;;;0.65;0.55;;;6.60;99.90;;;;;;5009630;28;20091;-70
2023/12/10 07:04:57;;;;;;;2.33;0.95;;;6.60;99.90;;;;;;5011387;28;20034;-71
2023/12/10 07:07:22;;;;;;;1.83;0.68;;;6.60;99.90;;;;;;5025276;28;20026;-71
2023/12/10 07:09:48;;;;;;;1.20;0.57;;;6.60;99.90;;;;;;5010427;28;20483;-71
2023/12/10 07:12:14;;;;;;;3.17;1.08;;;6.60;99.90;;;;;;5011472;28;20196;-71
2023/12/10 07:14:39;;;;;;;1.35;0.80;;;6.60;99.90;;;;;;5014048;28;20577;-71
2023/12/10 07:17:05;;;;;;;1.20;0.75;;;6.60;99.90;;;;;;5009504;28;20029;-71
2023/12/10 07:19:30;;;;;;;1.17;0.63;;;6.50;99.90;;;;;;5008800;28;20045;-71
2023/12/10 07:21:56;;;;;;;0.95;0.65;;;6.50;99.90;;;;;;5008718;28;20026;-71
2023/12/10 07:24:22;;;;;;;2.22;0.85;;;6.50;99.90;;;;;;5011592;28;20026;-71
2023/12/10 07:26:47;;;;;;;5.22;1.10;;;6.60;99.90;;;;;;5013233;28;20018;-70
2023/12/10 07:29:13;;;;;;;2.15;1.15;;;6.60;99.90;;;;;;5009816;28;20033;-71
2023/12/10 07:31:39;;;;;;;0.85;0.57;;;6.60;99.90;;;;;;5010424;28;20060;-71
2023/12/10 07:34:04;;;;;;;3.15;1.05;;;6.60;99.90;;;;;;5004054;28;20036;-71
2023/12/10 07:36:30;;;;;;;1.55;0.65;;;6.60;99.90;;;;;;5018886;28;20107;-71
2023/12/10 07:38:55;;;;;;;2.22;0.65;;;6.60;99.90;;;;;;5013672;28;20467;-71
2023/12/10 07:41:21;;;;;;;2.38;0.60;;;6.60;99.90;;;;;;5009926;28;20038;-71
2023/12/10 07:43:47;;;;;;;2.70;0.98;;;6.60;99.90;;;;;;5014081;28;20041;-71
2023/12/10 07:46:12;;;;;;;2.08;0.80;;;6.50;99.90;;;;;;5003936;28;20059;-71
2023/12/10 07:48:38;;;;;;;1.30;0.45;;;6.60;99.90;;;;;;5007622;28;20117;-69
2023/12/10 07:51:04;;;;;;;1.95;1.05;;;6.60;99.90;;;;;;5012620;28;20064;-70
2023/12/10 07:53:29;;;;;;;2.40;0.68;;;6.60;99.90;;;;;;5010043;28;20034;-70
2023/12/10 07:55:55;;;;;;;0.47;0.40;;;6.50;99.90;;;;;;5004339;28;20037;-71
2023/12/10 07:58:22;;;;;;;0.30;0.30;;;6.60;99.90;;;;;;5006205;28;20387;-71
2023/12/10 08:00:47;;;;;;;0.50;0.50;;;6.50;99.90;;;;;;4999274;28;20068;-72
2023/12/10 08:03:14;;;;;;;1.65;0.50;;;6.50;99.90;;;;;;5003478;28;20410;-72
2023/12/10 08:05:39;;;;;;;0.30;0.30;;;6.50;99.90;;;;;;5008801;28;20411;-71
2023/12/10 08:08:05;;;;;;;2.58;1.13;;;6.50;99.90;;;;;;5010656;28;20060;-71
2023/12/10 08:10:31;;;;;;;1.15;0.68;;;6.50;99.90;;;;;;5009547;28;20067;-70
2023/12/10 08:12:56;;;;;;;1.10;0.60;;;6.60;99.90;;;;;;5006138;28;20095;-71
2023/12/10 08:15:22;;;;;;;2.13;0.80;;;6.60;99.90;;;;;;5011241;28;20112;-70
2023/12/10 08:17:47;;;;;;;1.15;0.90;;;6.60;99.90;;;;;;5008369;28;20029;-72
2023/12/10 08:20:13;;;;;;;2.75;1.02;;;6.60;99.90;;;;;;5007934;28;20034;-73
2023/12/10 08:22:38;;;;;;;0.90;0.65;;;6.60;99.90;;;;;;5005995;28;20509;-72
2023/12/10 08:25:05;;;;;;;1.25;0.52;;;6.60;99.90;;;;;;5010810;28;20404;-71
2023/12/10 08:27:31;;;;;;;1.10;0.60;;;6.60;99.90;;;;;;5010111;28;20033;-73
2023/12/10 08:29:56;;;;;;;2.10;1.10;;;6.60;99.90;;;;;;5002694;28;20625;-71
2023/12/10 08:32:22;;;;;;;1.58;1.02;;;6.60;99.90;;;;;;5003503;28;20083;-72
2023/12/10 08:34:47;;;;;;;0.50;0.50;;;6.70;99.90;;;;;;4998765;28;20141;-71
2023/12/10 08:37:13;;;;;;;2.95;0.70;;;6.70;99.90;;;;;;4999840;28;20061;-72
2023/12/10 08:39:38;;;;;;;0.85;0.30;;;6.70;99.90;;;;;;5007783;28;20062;-71
2023/12/10 08:42:04;;;;;;;1.02;0.50;;;6.60;99.90;;;;;;5006219;28;20181;-72
2023/12/10 08:44:29;;;;;;;1.48;0.73;;;6.70;99.90;;;;;;5004374;28;20046;-71
2023/12/10 08:46:55;;;;;;;2.42;0.60;;;6.70;99.90;;;;;;5003614;28;20034;-72
2023/12/10 08:49:20;;;;;;;1.00;0.57;;;6.70;99.90;;;;;;5004185;28;20037;-71
2023/12/10 08:51:46;;;;;;;2.33;0.80;;;6.80;99.90;;;;;;5010391;28;20054;-71
2023/12/10 08:54:11;;;;;;;2.47;1.17;;;6.80;99.90;;;;;;5001615;28;20486;-71
2023/12/10 08:56:37;;;;;;;2.05;0.90;;;6.80;99.90;;;;;;5001350;28;20034;-72
2023/12/10 08:59:06;;;;;;;0.95;0.50;;;6.80;99.90;;;;;;5004210;28;20394;-71
2023/12/10 09:01:31;;;;;;;1.50;0.60;;;6.80;99.90;;;;;;5004663;28;20043;-73
2023/12/10 09:03:57;;;;;;;0.70;0.47;;;6.90;99.90;;;;;;5016206;28;20038;-73
2023/12/10 09:06:22;;;;;;;4.00;1.30;;;6.90;99.90;;;;;;5008599;28;20140;-74
2023/12/10 09:08:48;;;;;;;0.98;0.50;;;7.00;99.90;;;;;;5011114;28;20036;-70
2023/12/10 09:11:14;;;;;;;1.58;0.47;;;7.00;99.90;;;;;;5002102;28;20080;-72
2023/12/10 09:13:39;;;;;;;0.57;0.57;;;7.00;99.90;;;;;;5007192;28;20069;-72
2023/12/10 09:16:06;;;;;;;0.73;0.40;;;7.00;99.90;;;;;;5010145;28;20057;-72
2023/12/10 09:18:32;;;;;;;0.30;0.30;;;7.00;99.90;;;;;;5024725;28;20065;-71
2023/12/10 09:20:58;;;;;;;1.55;0.50;;;7.00;99.90;;;;;;5010271;28;20038;-70
2023/12/10 09:23:23;;;;;;;1.58;0.88;;;7.10;99.90;;;;;;5016373;28;20034;-71
2023/12/10 09:25:49;;;;;;;0.95;0.50;;;7.10;99.90;;;;;;5007322;28;20049;-71
2023/12/10 09:28:14;;;;;;;0.40;0.35;;;7.10;99.90;;;;;;5011468;28;20551;-72
2023/12/10 09:30:40;;;;;;;0.32;0.30;;;7.10;99.90;;;;;;5010037;28;20052;-71
2023/12/10 09:33:06;;;;;;;0.30;0.30;;;7.10;99.90;;;;;;5003995;28;20503;-70
2023/12/10 09:35:31;;;;;;;0.30;0.30;;;7.10;99.90;;;;;;4999463;28;20033;-70
2023/12/10 09:37:57;;;;;;;0.95;0.28;;;7.10;99.90;;;;;;5001477;28;20161;-70
2023/12/10 09:40:22;;;;;;;0.90;0.65;;;7.10;99.90;;;;;;5007183;28;20049;-71
2023/12/10 09:42:48;;;;;;;0.25;0.25;;;7.20;99.90;;;;;;5010492;28;20506;-70
2023/12/10 09:45:13;;;;;;;1.33;0.52;;;7.30;99.90;;;;;;5009460;28;20040;-69
2023/12/10 09:47:40;;;;;;;0.43;0.38;;;7.30;99.90;;;;;;5007844;28;20370;-70
2023/12/10 09:50:06;;;;;;;2.97;0.98;;;7.30;99.90;;;;;;5016486;28;20060;-69
2023/12/10 09:52:31;;;;;;;1.38;0.75;;;7.30;99.90;;;;;;5024950;28;20093;-70
2023/12/10 09:54:58;;;;;;;2.33;0.95;;;7.30;99.90;;;;;;4998150;28;20070;-71
2023/12/10 09:57:26;;;;;;;1.80;1.00;;;7.30;99.90;;;;;;5004140;28;20108;-71
2023/12/10 09:59:52;;;;;;;1.38;1.02;;;7.30;99.90;;;;;;5004222;28;20237;-72
2023/12/10 10:02:17;;;;;;;0.63;0.40;;;7.30;99.90;;;;;;4998736;28;20147;-73
2023/12/10 10:04:43;;;;;;;0.70;0.40;;;7.40;99.90;;;;;;5002732;28;20172;-72
2023/12/10 10:07:09;;;;;;;1.98;0.88;;;7.40;99.90;;;;;;5003002;28;20469;-71
2023/12/10 10:09:36;;;;;;;1.95;0.50;;;7.40;99.90;;;;;;5001187;28;20030;-72
2023/12/10 10:12:02;;;;;;;1.30;0.65;;;7.40;99.90;;;;;;5006911;28;20038;-72
2023/12/10 10:14:27;;;;;;;0.40;0.40;;;7.40;99.90;;;;;;5004247;28;20038;-72
2023/12/10 10:16:53;;;;;;;0.38;0.38;;;7.40;99.90;;;;;;5002202;28;20041;-72
2023/12/10 10:19:18;;;;;;;0.60;0.35;;;7.40;99.90;;;;;;4998882;28;20038;-72
2023/12/10 10:21:44;;;;;;;0.30;0.30;;;7.50;99.90;;;;;;5002467;28;20026;-72
2023/12/10 10:24:11;;;;;;;0.32;0.32;;;7.40;99.90;;;;;;5007913;28;20398;-72
2023/12/10 10:26:37;;;;;;;0.95;0.40;;;7.50;99.90;;;;;;5009627;28;20029;-72
2023/12/10 10:29:04;;;;;;;0.90;0.68;;;7.50;99.90;;;;;;5008301;28;20046;-72
2023/12/10 10:31:32;;;;;;;0.98;0.77;;;7.50;99.90;;;;;;5007603;28;20042;-71
2023/12/10 10:34:01;;;;;;;2.38;0.98;;;7.50;99.90;;;;;;5000535;28;20029;-72
2023/12/10 10:36:26;;;;;;;1.15;0.80;;;7.60;99.90;;;;;;5002990;28;20060;-73
2023/12/10 10:38:52;;;;;;;2.38;1.10;;;7.60;99.90;;;;;;5006785;28;20065;-72
2023/12/10 10:41:19;;;;;;;2.03;0.98;;;7.60;99.90;;;;;;5007168;28;20451;-72
2023/12/10 10:43:44;;;;;;;0.95;0.85;;;7.70;99.90;;;;;;5008170;28;20500;-67
2023/12/10 10:46:11;;;;;;;1.13;0.70;;;7.70;99.90;;;;;;5002362;28;20062;-70
2023/12/10 10:48:38;;;;;;;0.90;0.65;;;7.70;99.90;;;;;;5003942;28;20133;-72
2023/12/10 10:51:05;;;;;;;2.42;0.52;;;7.70;99.90;;;;;;5006063;28;20054;-73
2023/12/10 10:53:34;;;;;;;0.65;0.55;;;7.80;99.90;;;;;;5007345;28;20092;-73
2023/12/10 10:56:00;;;;;;;0.57;0.55;;;7.70;99.90;;;;;;5000504;28;20056;-73
2023/12/10 10:58:28;;;;;;;1.75;0.50;;;7.70;99.90;;;;;;5007505;28;20084;-71
2023/12/10 11:00:57;;;;;;;0.52;0.45;;;7.70;99.90;;;;;;5004160;28;20037;-72
2023/12/10 11:03:29;;;;;;;0.90;0.47;;;7.70;99.90;;;;;;5005454;28;20116;-72
2023/12/10 11:05:57;;;;;;;1.13;0.47;;;7.70;99.90;;;;;;5011029;28;20467;-76
2023/12/10 11:08:25;;;;;;;0.90;0.65;;;7.70;99.90;;;;;;5015550;28;20121;-76
2023/12/10 11:10:58;;;;;;;0.73;0.47;;;7.70;99.90;;;;;;5003027;28;20041;-74
2023/12/10 11:13:46;;;;;;;0.70;0.57;;;7.70;99.90;;;;;;4999978;28;20398;-74
2023/12/10 11:16:12;;;;;;;4.50;0.82;;;7.80;99.90;;;;;;5005888;28;20026;-75
2023/12/10 11:18:57;;;;;;;0.30;0.30;;;7.70;99.90;;;;;;5006892;28;20623;-74
2023/12/10 11:21:23;;;;;;;1.50;0.75;;;7.70;99.90;;;;;;5001914;28;20034;-75
2023/12/10 11:23:48;;;;;;;1.00;0.88;;;7.80;99.90;;;;;;5023688;28;20036;-70
2023/12/10 11:26:15;;;;;;;2.38;0.88;;;7.80;99.90;;;;;;4998325;28;20042;-71
2023/12/10 11:28:43;;;;;;;1.02;0.35;;;7.90;99.90;;;;;;5007272;28;20529;-75
2023/12/10 11:31:09;;;;;;;1.58;1.00;;;7.90;99.90;;;;;;5006004;28;20036;-75
2023/12/10 11:33:40;;;;;;;1.00;0.47;;;7.90;99.90;;;;;;4998457;28;20041;-74
2023/12/10 11:36:09;;;;;;;1.20;0.60;;;7.90;99.90;;;;;;5010037;28;20022;-73
2023/12/10 11:38:35;;;;;;;1.85;0.40;;;7.90;99.90;;;;;;5010231;28;20491;-72
2023/12/10 11:41:01;;;;;;;0.80;0.45;;;8.00;99.90;;;;;;5013536;28;20115;-75
2023/12/10 11:43:26;;;;;;;1.30;0.47;;;8.00;99.90;;;;;;5010161;28;20084;-72
2023/12/10 11:45:53;;;;;;;2.55;0.88;;;8.10;99.90;;;;;;5009024;28;20042;-72
2023/12/10 11:48:19;;;;;;;7.85;0.75;;;8.10;99.90;;;;;;5013544;28;20026;-73
2023/12/10 11:50:46;;;;;;;0.98;0.65;;;8.10;99.90;;;;;;5009881;28;20050;-73
2023/12/10 11:53:15;;;;;;;2.25;0.80;;;8.10;99.90;;;;;;5013503;28;20037;-73
2023/12/10 11:55:41;;;;;;;1.80;1.25;;;8.10;99.90;;;;;;5011439;28;20037;-73
2023/12/10 11:58:07;;;;;;;2.58;0.73;;;8.10;99.90;;;;;;5012523;28;20375;-72
2023/12/10 12:00:32;;;;;;;0.52;0.47;;;8.10;99.90;;;;;;5012553;28;20096;-74
2023/12/10 12:02:58;;;;;;;3.05;0.82;;;8.20;99.90;;;;;;5007815;28;20442;-73
2023/12/10 12:05:23;;;;;;;1.73;0.50;;;8.20;99.90;;;;;;5013358;28;20474;-72
2023/12/10 12:07:50;;;;;;;0.80;0.60;;;8.30;99.90;;;;;;5010744;28;20032;-73
2023/12/10 12:10:17;;;;;;;2.15;0.70;;;8.20;99.90;;;;;;5023574;28;20037;-75
2023/12/10 12:12:45;;;;;;;2.10;0.90;;;8.30;99.90;;;;;;5010447;28;21145;-73
2023/12/10 12:15:12;;;;;;;0.93;0.40;;;8.30;99.90;;;;;;5013452;28;20374;-74
2023/12/10 12:17:38;;;;;;;1.63;0.77;;;8.30;99.70;;;;;;5021538;28;20026;-74
2023/12/10 12:20:13;;;;;;;1.42;0.50;;;8.30;99.60;;;;;;5005720;28;20466;-70
2023/12/10 12:22:38;;;;;;;3.15;0.55;;;8.30;99.60;;;;;;5012227;28;20052;-69
2023/12/10 12:25:05;;;;;;;3.83;0.70;;;8.30;99.60;;;;;;5009165;28;20463;-75
2023/12/10 12:27:31;;;;;;;0.52;0.32;;;8.20;99.90;;;;;;5009290;28;20057;-73
2023/12/10 12:29:56;;;;;;;0.82;0.35;;;8.10;99.90;;;;;;5011887;28;20061;-74
2023/12/10 12:32:22;;;;;;;0.75;0.63;;;8.10;99.90;;;;;;5023089;28;20121;-75
2023/12/10 12:34:47;;;;;;;1.08;0.25;;;8.10;99.90;;;;;;5004829;28;20026;-74
2023/12/10 12:37:12;;;;;;;0.15;0.15;;;8.00;99.90;;;;;;5008653;28;20109;-74
2023/12/10 12:39:38;;;;;;;0.82;0.15;;;8.00;99.90;;;;;;5013389;28;20092;-73
2023/12/10 12:42:03;;;;;;;0.47;0.30;;;8.00;99.90;;;;;;5009421;28;20010;-73
2023/12/10 12:44:29;;;;;;;1.40;0.40;;;8.00;99.90;;;;;;5027769;28;20041;-73
2023/12/10 12:46:54;;;;;;;0.17;0.17;;;8.00;99.90;;;;;;5008264;28;20394;-74
2023/12/10 12:49:20;;;;;;;1.38;0.45;;;7.90;99.90;;;;;;5016927;28;20109;-74
2023/12/10 12:51:45;;;;;;;0.75;0.32;;;8.00;99.90;;;;;;5026692;28;20050;-74